Time;durP1;ratioP1;P1;durP2;ratioP2;P2;SDS_P1;SDS_P2;PMS_P1;PMS_P2;Temp;Humidity;BMP_temperature;BMP_pressure;BME280_temperature;BME280_humidity;BME280_pressure;Samples;Min_cycle;Max_cycle;Signal;HPM_P1;HPM_P2
2021/12/21 00:00:21;;;;;;;1.20;1.20;;;;;;;-16.58;69.95;97984.34;4938619;29;20596;-84
2021/12/21 00:02:51;;;;;;;1.55;1.45;;;;;;;-16.57;69.93;97993.75;4938171;29;20098;-84
2021/12/21 00:05:25;;;;;;;1.40;1.30;;;;;;;-16.61;69.91;97988.81;4955440;28;20506;-85
2021/12/21 00:07:53;;;;;;;1.50;1.40;;;;;;;-16.53;70.26;97993.47;4955401;28;20051;-84
2021/12/21 00:10:24;;;;;;;1.40;1.30;;;;;;;-16.58;69.62;97987.78;4954762;29;20575;-85
2021/12/21 00:15:42;;;;;;;1.60;1.50;;;;;;;-16.61;69.54;97985.38;4954809;29;20143;-84
2021/12/21 00:23:38;;;;;;;1.40;1.30;;;;;;;-16.49;70.09;97991.50;4954872;29;20114;-85
2021/12/21 00:26:05;;;;;;;1.40;1.30;;;;;;;-16.52;69.70;97995.13;4954867;29;20055;-85
2021/12/21 00:28:39;;;;;;;1.15;1.13;;;;;;;-16.61;69.34;97986.22;4954907;29;20514;-84
2021/12/21 00:31:06;;;;;;;1.27;1.23;;;;;;;-16.63;69.51;97993.22;4954838;29;20427;-84
2021/12/21 00:33:33;;;;;;;1.33;1.25;;;;;;;-16.64;68.79;97983.81;4954686;29;20137;-84
2021/12/21 00:36:03;;;;;;;1.20;1.20;;;;;;;-16.74;68.84;97995.66;4955005;29;20078;-83
2021/12/21 00:38:30;;;;;;;1.17;1.17;;;;;;;-16.70;69.05;97997.13;4937582;29;20063;-85
2021/12/21 00:40:57;;;;;;;1.55;1.45;;;;;;;-16.58;69.30;97998.09;4954501;28;20047;-84
2021/12/21 00:43:24;;;;;;;1.13;1.13;;;;;;;-16.58;69.51;97998.09;4954249;29;20511;-83
2021/12/21 00:45:51;;;;;;;1.60;1.50;;;;;;;-16.62;69.21;97994.88;4954467;28;20426;-84
2021/12/21 00:48:18;;;;;;;1.55;1.45;;;;;;;-16.63;69.83;98006.16;4954585;29;20097;-84
2021/12/21 00:50:45;;;;;;;1.85;1.50;;;;;;;-16.70;69.83;98002.31;4954745;29;20423;-85
2021/12/21 00:53:13;;;;;;;1.20;1.20;;;;;;;-16.79;69.83;98005.50;4954315;29;20126;-86
2021/12/21 00:55:40;;;;;;;1.40;1.30;;;;;;;-16.80;70.08;98003.84;4954648;29;20047;-84
2021/12/21 00:58:07;;;;;;;1.50;1.40;;;;;;;-16.81;70.14;98012.50;4954679;29;20502;-84
2021/12/21 01:00:34;;;;;;;1.38;1.27;;;;;;;-16.83;70.09;97998.88;4954213;29;20138;-84
2021/12/21 01:03:08;;;;;;;1.42;1.33;;;;;;;-16.88;70.19;97995.78;4954170;28;20565;-84
2021/12/21 01:08:44;;;;;;;1.42;1.33;;;;;;;-16.79;70.15;98013.25;4894592;29;20093;-83
2021/12/21 01:11:22;;;;;;;1.50;1.40;;;;;;;-16.86;69.91;98011.97;4894889;29;20345;-83
2021/12/21 01:16:32;;;;;;;1.35;1.27;;;;;;;-16.87;69.39;98020.66;4893835;29;20179;-85
2021/12/21 01:21:31;;;;;;;1.50;1.40;;;;;;;-17.06;68.83;98026.97;4897899;29;20057;-84
2021/12/21 01:26:48;;;;;;;1.23;1.20;;;;;;;-17.01;69.08;98020.69;4894648;29;20432;-83
2021/12/21 01:29:33;;;;;;;1.52;1.42;;;;;;;-16.98;69.13;98015.34;4894517;29;20090;-84
2021/12/21 01:32:12;;;;;;;1.55;1.45;;;;;;;-16.91;69.21;98020.03;4895266;29;20528;-83
2021/12/21 01:35:03;;;;;;;1.45;1.35;;;;;;;-16.93;68.87;98024.44;4895635;29;20052;-83
2021/12/21 01:37:48;;;;;;;1.50;1.40;;;;;;;-17.00;68.79;98017.19;4895298;29;20056;-84
2021/12/21 01:51:03;;;;;;;1.52;1.42;;;;;;;-17.03;68.75;98036.28;4978436;28;20157;-84
2021/12/21 01:53:31;;;;;;;1.40;1.30;;;;;;;-16.98;68.75;98025.69;4976895;28;20051;-84
2021/12/21 01:55:58;;;;;;;1.40;1.30;;;;;;;-16.95;68.65;98026.28;4960186;29;20047;-84
2021/12/21 01:58:25;;;;;;;1.35;1.27;;;;;;;-17.04;68.16;98019.13;4940156;29;20493;-84
2021/12/21 02:00:55;;;;;;;1.30;1.25;;;;;;;-16.99;68.16;98029.16;4938891;29;20117;-84
2021/12/21 02:03:23;;;;;;;1.50;1.40;;;;;;;-17.06;67.90;98026.16;4954588;29;20064;-84
2021/12/21 02:05:50;;;;;;;1.55;1.45;;;;;;;-17.09;68.07;98032.34;4953789;28;20057;-84
2021/12/21 02:08:17;;;;;;;1.40;1.30;;;;;;;-17.02;68.30;98030.19;4953906;28;20135;-84
2021/12/21 02:10:45;;;;;;;1.40;1.30;;;;;;;-16.99;68.22;98039.47;4936946;29;20047;-83
2021/12/21 02:13:12;;;;;;;1.45;1.35;;;;;;;-16.99;68.32;98042.88;4953541;28;20532;-84
2021/12/21 02:15:39;;;;;;;1.05;1.05;;;;;;;-16.96;68.36;98047.88;4952263;29;20043;-84
2021/12/21 02:20:49;;;;;;;1.38;1.27;;;;;;;-17.05;68.46;98059.59;4953947;29;20133;-84
2021/12/21 02:23:23;;;;;;;1.10;1.10;;;;;;;-17.00;68.78;98058.47;4952899;29;20055;-85
2021/12/21 02:30:51;;;;;;;1.20;1.20;;;;;;;-16.89;69.41;98059.44;4957400;29;20055;-84
2021/12/21 02:33:19;;;;;;;1.15;1.15;;;;;;;-16.90;69.22;98057.81;4940605;29;20051;-85
2021/12/21 02:35:46;;;;;;;1.33;1.23;;;;;;;-16.92;69.24;98057.06;4957329;29;20437;-84
2021/12/21 02:38:13;;;;;;;1.50;1.40;;;;;;;-16.96;69.14;98065.09;4957572;28;20091;-84
2021/12/21 02:40:42;;;;;;;1.52;1.42;;;;;;;-17.05;68.92;98067.34;4957387;28;20102;-84
2021/12/21 02:43:10;;;;;;;1.40;1.30;;;;;;;-17.15;68.73;98076.56;4956763;28;20055;-83
2021/12/21 02:45:38;;;;;;;1.42;1.33;;;;;;;-17.15;68.88;98073.97;4957319;29;20138;-84
2021/12/21 02:48:06;;;;;;;1.60;1.50;;;;;;;-17.21;69.20;98076.94;4958121;28;20395;-83
2021/12/21 02:50:36;;;;;;;1.40;1.30;;;;;;;-17.26;69.08;98081.56;4957866;29;20059;-81
2021/12/21 02:53:03;;;;;;;1.40;1.30;;;;;;;-17.29;69.15;98077.41;4957590;29;20070;-84
2021/12/21 02:55:30;;;;;;;1.15;1.15;;;;;;;-17.24;69.38;98097.75;4957688;28;20075;-83
2021/12/21 02:57:58;;;;;;;1.50;1.40;;;;;;;-17.20;69.57;98088.91;4959290;29;20059;-83
2021/12/21 03:00:27;;;;;;;1.60;1.50;;;;;;;-17.13;69.58;98091.97;4957078;28;20047;-88
2021/12/21 03:02:54;;;;;;;1.58;1.48;;;;;;;-17.16;69.52;98092.13;4940542;29;20425;-87
2021/12/21 03:05:22;;;;;;;1.50;1.40;;;;;;;-17.11;69.67;98087.53;4956654;29;20056;-88
2021/12/21 03:08:11;;;;;;;1.60;1.50;;;;;;;-17.10;69.61;98079.69;4958282;29;20093;-92
2021/12/21 03:10:57;;;;;;;1.48;1.38;;;;;;;-17.09;69.42;98080.50;4957667;29;20051;-85
2021/12/21 03:16:09;;;;;;;1.35;1.25;;;;;;;-17.10;70.08;98094.34;4959685;29;20050;-89
2021/12/21 03:18:37;;;;;;;1.25;1.20;;;;;;;-17.11;69.91;98097.88;4957322;29;20422;-88
2021/12/21 03:21:04;;;;;;;1.38;1.27;;;;;;;-17.16;70.16;98105.03;4957369;29;20122;-87
2021/12/21 03:23:31;;;;;;;1.10;1.10;;;;;;;-17.22;70.20;98101.06;4955750;29;20102;-87
2021/12/21 03:25:58;;;;;;;1.10;1.10;;;;;;;-17.20;70.18;98108.72;4956691;29;20055;-88
2021/12/21 03:28:25;;;;;;;1.50;1.40;;;;;;;-17.23;70.20;98111.50;4955893;29;20533;-83
2021/12/21 03:30:53;;;;;;;1.42;1.33;;;;;;;-17.28;70.07;98104.88;4922685;29;20055;-87
2021/12/21 03:33:20;;;;;;;1.10;1.10;;;;;;;-17.32;70.10;98107.72;4962452;28;20058;-86
2021/12/21 03:35:47;;;;;;;1.50;1.40;;;;;;;-17.33;70.13;98098.34;4972590;28;20061;-86
2021/12/21 03:38:16;;;;;;;1.13;1.13;;;;;;;-17.28;70.08;98097.13;4972214;28;20050;-86
2021/12/21 03:40:44;;;;;;;1.52;1.42;;;;;;;-17.30;69.87;98100.72;4973695;28;20059;-86
2021/12/21 03:43:11;;;;;;;1.00;1.00;;;;;;;-17.36;69.40;98095.94;4972857;28;20109;-86
2021/12/21 03:45:46;;;;;;;1.35;1.25;;;;;;;-17.44;69.53;98101.56;4971454;28;20077;-84
2021/12/21 03:48:15;;;;;;;1.33;1.23;;;;;;;-17.48;69.28;98094.91;4971850;28;20553;-86
2021/12/21 03:50:42;;;;;;;1.13;1.13;;;;;;;-17.59;69.25;98093.00;4972830;28;20106;-86
2021/12/21 03:53:10;;;;;;;1.58;1.48;;;;;;;-17.59;69.41;98107.63;4974324;28;20050;-83
2021/12/21 03:55:37;;;;;;;1.40;1.30;;;;;;;-17.50;69.68;98105.31;4977851;28;20485;-83
2021/12/21 03:58:04;;;;;;;1.55;1.45;;;;;;;-17.52;69.37;98106.31;4974606;28;20051;-81
2021/12/21 04:00:31;;;;;;;1.02;1.02;;;;;;;-17.57;69.32;98113.50;4973213;28;20422;-84
2021/12/21 04:02:58;;;;;;;1.35;1.25;;;;;;;-17.54;69.50;98106.44;4972811;28;20050;-83
2021/12/21 04:05:26;;;;;;;1.42;1.33;;;;;;;-17.51;69.71;98111.41;4973752;28;20043;-84
2021/12/21 04:07:55;;;;;;;1.30;1.23;;;;;;;-17.52;69.68;98114.91;4974006;28;20050;-82
2021/12/21 04:10:22;;;;;;;1.73;1.63;;;;;;;-17.52;69.48;98114.06;4973950;28;20413;-82
2021/12/21 04:12:50;;;;;;;1.40;1.30;;;;;;;-17.48;69.40;98131.03;4974198;28;20062;-82
2021/12/21 04:15:18;;;;;;;1.40;1.30;;;;;;;-17.43;69.39;98135.91;4973703;28;20109;-84
2021/12/21 04:17:48;;;;;;;1.50;1.40;;;;;;;-17.52;68.50;98137.28;4974450;28;20062;-83
2021/12/21 04:20:15;;;;;;;1.23;1.20;;;;;;;-17.52;68.57;98129.53;4973982;28;20093;-83
2021/12/21 04:22:42;;;;;;;1.50;1.40;;;;;;;-17.53;68.47;98130.47;4977685;28;20521;-83
2021/12/21 04:25:09;;;;;;;1.15;1.15;;;;;;;-17.57;68.56;98139.28;4993620;28;20058;-83
2021/12/21 04:27:37;;;;;;;1.05;1.05;;;;;;;-17.55;68.37;98130.53;4993030;28;20502;-83
2021/12/21 04:30:05;;;;;;;1.50;1.40;;;;;;;-17.58;68.37;98128.16;4993180;28;20050;-83
2021/12/21 04:32:32;;;;;;;1.55;1.45;;;;;;;-17.55;68.34;98140.03;4979941;28;20046;-83
2021/12/21 04:34:59;;;;;;;1.10;1.10;;;;;;;-17.53;68.33;98139.03;4999416;28;20054;-84
2021/12/21 04:37:29;;;;;;;1.40;1.30;;;;;;;-17.57;67.91;98153.03;4993681;28;20050;-83
2021/12/21 04:40:04;;;;;;;1.45;1.35;;;;;;;-17.61;68.03;98136.06;4993489;28;20153;-83
2021/12/21 04:42:37;;;;;;;1.08;1.08;;;;;;;-17.57;68.20;98149.59;4977153;28;20453;-84
2021/12/21 04:45:05;;;;;;;1.05;1.05;;;;;;;-17.53;68.06;98148.50;4993864;28;20073;-83
2021/12/21 04:47:32;;;;;;;1.33;1.23;;;;;;;-17.56;68.19;98157.25;4992180;28;20460;-84
2021/12/21 04:49:59;;;;;;;1.55;1.45;;;;;;;-17.51;68.29;98159.56;4974859;28;20138;-83
2021/12/21 04:52:26;;;;;;;1.38;1.27;;;;;;;-17.56;67.96;98153.84;4992642;28;20101;-83
2021/12/21 04:54:54;;;;;;;1.48;1.38;;;;;;;-17.57;68.10;98153.03;4993163;28;20054;-84
2021/12/21 04:57:22;;;;;;;1.55;1.45;;;;;;;-17.60;67.82;98157.53;4992762;28;20556;-84
2021/12/21 04:59:49;;;;;;;1.50;1.40;;;;;;;-17.59;68.02;98154.03;4969035;28;20087;-83
2021/12/21 05:02:17;;;;;;;1.48;1.38;;;;;;;-17.56;68.25;98153.84;4958163;28;20086;-84
2021/12/21 05:04:44;;;;;;;1.58;1.48;;;;;;;-17.56;68.54;98159.03;4961323;28;20055;-83
2021/12/21 05:07:15;;;;;;;1.00;1.00;;;;;;;-17.54;68.54;98165.75;4960944;28;20051;-83
2021/12/21 05:09:45;;;;;;;1.10;1.10;;;;;;;-17.53;68.54;98169.97;4960147;28;20090;-83
2021/12/21 05:12:13;;;;;;;1.23;1.20;;;;;;;-17.50;68.67;98163.81;4959354;28;20047;-83
2021/12/21 05:14:40;;;;;;;1.55;1.45;;;;;;;-17.50;68.60;98171.53;4954533;29;20126;-84
2021/12/21 05:17:07;;;;;;;1.60;1.50;;;;;;;-17.57;68.21;98178.81;4950465;29;20519;-82
2021/12/21 05:19:34;;;;;;;1.48;1.38;;;;;;;-17.58;68.46;98189.22;4933365;29;20051;-84
2021/12/21 05:22:01;;;;;;;1.33;1.23;;;;;;;-17.65;68.48;98181.00;4601317;28;10000002;-83
2021/12/21 05:24:29;;;;;;;1.42;1.33;;;;;;;-17.66;68.82;98181.91;4951793;28;20094;-85
2021/12/21 05:26:57;;;;;;;1.30;1.20;;;;;;;-17.65;68.79;98181.00;4960481;28;20055;-82
2021/12/21 05:29:24;;;;;;;1.30;1.20;;;;;;;-17.68;68.60;98186.31;4932086;29;20135;-82
2021/12/21 05:31:53;;;;;;;1.45;1.35;;;;;;;-17.64;69.02;98184.41;4950308;29;20047;-85
2021/12/21 05:34:26;;;;;;;1.20;1.20;;;;;;;-17.64;68.87;98192.97;4950366;29;20104;-83
2021/12/21 05:36:54;;;;;;;1.50;1.40;;;;;;;-17.69;69.15;98184.69;4963279;28;20065;-85
2021/12/21 05:39:26;;;;;;;1.60;1.50;;;;;;;-17.65;69.24;98188.72;4960132;28;20075;-87
2021/12/21 05:41:55;;;;;;;1.63;1.52;;;;;;;-17.70;69.21;98190.75;4963821;28;20507;-86
2021/12/21 05:44:24;;;;;;;1.38;1.27;;;;;;;-17.79;69.37;98186.94;4953403;28;20118;-88
2021/12/21 05:46:54;;;;;;;1.42;1.33;;;;;;;-17.76;69.37;98193.69;4963723;28;20149;-88
2021/12/21 05:49:21;;;;;;;1.60;1.50;;;;;;;-17.77;69.19;98194.56;4964268;28;20097;-87
2021/12/21 05:51:49;;;;;;;1.15;1.15;;;;;;;-17.65;69.53;98205.94;4979942;28;20070;-85
2021/12/21 05:54:18;;;;;;;1.60;1.50;;;;;;;-17.60;69.60;98199.59;4978622;28;20109;-83
2021/12/21 05:56:46;;;;;;;1.50;1.40;;;;;;;-17.59;69.71;98198.69;4991747;28;20421;-83
2021/12/21 05:59:13;;;;;;;1.27;1.20;;;;;;;-17.56;69.71;98201.09;4975425;28;20406;-84
2021/12/21 06:01:40;;;;;;;1.40;1.30;;;;;;;-17.57;69.86;98204.59;4992555;28;20046;-84
2021/12/21 06:04:12;;;;;;;1.40;1.30;;;;;;;-17.49;70.25;98199.81;4962795;28;20050;-85
2021/12/21 06:06:39;;;;;;;1.30;1.20;;;;;;;-17.55;69.90;98196.75;4995807;28;20047;-85
2021/12/21 06:09:09;;;;;;;1.30;1.20;;;;;;;-17.51;69.87;98186.19;4996713;28;20157;-84
2021/12/21 06:11:43;;;;;;;1.67;1.58;;;;;;;-17.51;69.40;98201.66;4971561;28;20248;-85
2021/12/21 06:14:21;;;;;;;1.40;1.30;;;;;;;-17.49;69.27;98204.16;4979968;28;20859;-84
2021/12/21 06:27:37;;;;;;;1.38;1.27;;;;;;;-17.54;68.17;98229.38;4962098;28;20046;-85
2021/12/21 06:30:05;;;;;;;1.33;1.23;;;;;;;-17.40;68.45;98226.81;4996365;28;20111;-84
2021/12/21 06:32:35;;;;;;;1.40;1.30;;;;;;;-17.40;68.07;98218.25;4980333;28;20050;-85
2021/12/21 06:35:03;;;;;;;1.42;1.33;;;;;;;-17.41;68.02;98235.50;4996585;28;20093;-85
2021/12/21 06:37:33;;;;;;;1.40;1.30;;;;;;;-17.39;68.11;98231.06;4994711;28;20042;-85
2021/12/21 06:40:01;;;;;;;1.15;1.15;;;;;;;-17.53;67.28;98237.00;4978309;28;20112;-84
2021/12/21 06:42:29;;;;;;;1.40;1.30;;;;;;;-17.64;66.70;98233.38;4977907;28;20057;-84
2021/12/21 06:44:59;;;;;;;1.20;1.20;;;;;;;-17.67;66.77;98229.22;4996116;28;20157;-85
2021/12/21 06:53:00;;;;;;;1.60;1.50;;;;;;;-17.67;66.80;98241.28;4995282;28;20062;-84
2021/12/21 06:55:30;;;;;;;1.50;1.40;;;;;;;-17.66;66.30;98245.53;4988602;28;20086;-84
2021/12/21 06:58:00;;;;;;;1.60;1.50;;;;;;;-17.59;66.63;98246.88;4969155;28;20050;-83
2021/12/21 07:00:27;;;;;;;1.30;1.20;;;;;;;-17.55;66.59;98228.53;4952328;28;20541;-84
2021/12/21 07:02:55;;;;;;;1.42;1.33;;;;;;;-17.49;66.68;98229.94;4968155;28;20079;-85
2021/12/21 07:05:26;;;;;;;1.60;1.50;;;;;;;-17.36;66.88;98238.63;4910226;28;20581;-85
2021/12/21 07:07:54;;;;;;;1.50;1.40;;;;;;;-17.20;66.66;98248.88;4955886;28;20042;-86
2021/12/21 07:10:25;;;;;;;1.25;1.20;;;;;;;-17.19;66.41;98260.84;4967421;28;20096;-85
2021/12/21 07:18:29;;;;;;;1.50;1.40;;;;;;;-17.21;66.24;98267.00;4969302;28;20055;-84
2021/12/21 07:20:58;;;;;;;1.40;1.30;;;;;;;-17.38;65.88;98265.44;4969107;28;20079;-85
2021/12/21 07:23:26;;;;;;;1.58;1.48;;;;;;;-17.45;66.38;98258.97;4915701;28;20561;-85
2021/12/21 07:25:54;;;;;;;1.63;1.52;;;;;;;-17.16;66.48;98272.75;4953908;28;20047;-83
2021/12/21 07:28:21;;;;;;;1.40;1.30;;;;;;;-17.17;66.25;98265.94;4960548;28;20086;-88
2021/12/21 07:30:48;;;;;;;1.40;1.30;;;;;;;-17.23;66.14;98274.03;4955020;28;20417;-83
2021/12/21 07:33:19;;;;;;;1.40;1.30;;;;;;;-17.21;65.89;98272.19;4971808;28;20054;-88
2021/12/21 07:35:47;;;;;;;1.10;1.10;;;;;;;-17.23;65.95;98277.44;4976142;28;20083;-85
2021/12/21 07:38:40;;;;;;;1.70;1.60;;;;;;;-17.20;65.88;98269.53;4980318;28;20039;-88
2021/12/21 07:41:08;;;;;;;1.33;1.23;;;;;;;-17.11;66.07;98278.50;4974507;28;20142;-88
2021/12/21 07:43:35;;;;;;;1.50;1.40;;;;;;;-17.22;65.50;98273.09;4955985;29;20473;-87
2021/12/21 07:46:03;;;;;;;1.50;1.40;;;;;;;-17.11;65.68;98274.16;4968812;28;20061;-86
2021/12/21 07:48:33;;;;;;;1.70;1.60;;;;;;;-17.03;66.03;98293.53;4965877;29;20086;-87
2021/12/21 07:51:01;;;;;;;1.17;1.17;;;;;;;-17.12;65.55;98298.28;4940917;29;20071;-88
2021/12/21 07:53:29;;;;;;;1.17;1.13;;;;;;;-17.13;65.50;98282.91;4939594;29;20043;-87
2021/12/21 07:56:01;;;;;;;1.48;1.38;;;;;;;-17.07;65.89;98279.94;4955803;28;20047;-87
2021/12/21 07:58:32;;;;;;;1.50;1.40;;;;;;;-17.05;65.64;98286.69;4955672;29;20059;-87
2021/12/21 08:01:00;;;;;;;1.40;1.30;;;;;;;-17.08;65.74;98292.03;4956686;29;20059;-86
2021/12/21 08:03:33;;;;;;;1.60;1.50;;;;;;;-16.88;65.99;98290.03;4956665;28;20057;-86
2021/12/21 08:06:04;;;;;;;1.50;1.40;;;;;;;-16.71;66.05;98291.56;4957544;28;20134;-87
2021/12/21 08:08:31;;;;;;;1.40;1.30;;;;;;;-16.63;66.16;98281.63;4956618;28;20083;-87
2021/12/21 08:11:13;;;;;;;1.55;1.45;;;;;;;-16.77;65.97;98286.81;4957104;29;20047;-87
2021/12/21 08:13:43;;;;;;;1.60;1.50;;;;;;;-16.80;66.10;98302.50;4939008;29;20106;-86
2021/12/21 08:16:11;;;;;;;1.33;1.23;;;;;;;-16.73;66.26;98293.41;4939431;29;20055;-87
2021/12/21 08:18:38;;;;;;;1.60;1.50;;;;;;;-16.69;66.45;98295.72;4958654;29;20672;-86
2021/12/21 08:21:06;;;;;;;1.52;1.42;;;;;;;-16.69;66.68;98292.31;4941822;29;20078;-86
2021/12/21 08:23:34;;;;;;;1.60;1.50;;;;;;;-16.80;66.30;98289.59;4960332;28;20338;-87
2021/12/21 08:26:01;;;;;;;1.60;1.50;;;;;;;-16.83;65.92;98293.19;4956511;28;20054;-86
2021/12/21 08:28:28;;;;;;;1.38;1.27;;;;;;;-16.88;65.69;98287.47;4938115;29;20150;-86
2021/12/21 08:30:59;;;;;;;1.50;1.40;;;;;;;-16.89;65.86;98284.03;4956027;28;20137;-87
2021/12/21 08:33:26;;;;;;;1.40;1.30;;;;;;;-16.88;65.59;98274.56;4939290;29;20078;-86
2021/12/21 08:35:54;;;;;;;1.40;1.30;;;;;;;-16.76;65.99;98289.25;4955379;28;20058;-87
2021/12/21 08:38:21;;;;;;;1.50;1.40;;;;;;;-16.68;65.80;98292.25;4955465;28;20098;-87
2021/12/21 08:40:50;;;;;;;1.40;1.30;;;;;;;-16.66;65.81;98277.50;4955989;28;20170;-85
2021/12/21 08:43:20;;;;;;;1.38;1.27;;;;;;;-16.67;66.11;98286.13;4956309;29;20066;-87
2021/12/21 08:45:49;;;;;;;1.40;1.30;;;;;;;-16.50;66.38;98289.47;4956040;28;20094;-87
2021/12/21 08:48:17;;;;;;;1.58;1.48;;;;;;;-16.50;66.08;98287.72;4939510;29;20048;-85
2021/12/21 08:50:45;;;;;;;1.48;1.38;;;;;;;-16.63;65.83;98279.06;4956362;29;20400;-86
2021/12/21 08:53:13;;;;;;;1.48;1.38;;;;;;;-16.65;65.99;98275.72;4956847;28;20506;-86
2021/12/21 08:55:45;;;;;;;1.60;1.50;;;;;;;-16.68;65.78;98281.91;4955973;28;20058;-86
2021/12/21 08:58:13;;;;;;;1.50;1.40;;;;;;;-16.62;66.17;98278.94;4938272;29;20247;-87
2021/12/21 09:00:41;;;;;;;1.65;1.55;;;;;;;-16.37;66.02;98295.56;4955147;29;20183;-87
2021/12/21 09:03:09;;;;;;;1.70;1.60;;;;;;;-16.29;66.03;98305.41;4954915;29;20094;-86
2021/12/21 09:05:39;;;;;;;1.50;1.40;;;;;;;-16.22;66.40;98293.78;4954384;28;20055;-89
2021/12/21 09:08:10;;;;;;;1.67;1.58;;;;;;;-16.09;66.78;98280.94;4954421;28;20138;-87
2021/12/21 09:10:39;;;;;;;1.70;1.60;;;;;;;-16.04;66.65;98292.63;4954207;29;20051;-87
2021/12/21 09:13:09;;;;;;;1.63;1.52;;;;;;;-16.18;66.83;98290.94;4938711;29;20102;-87
2021/12/21 09:15:37;;;;;;;1.38;1.27;;;;;;;-16.10;67.05;98298.19;4922745;29;20054;-87
2021/12/21 09:18:10;;;;;;;1.80;1.70;;;;;;;-16.15;66.31;98292.50;4955632;29;20414;-87
2021/12/21 09:20:37;;;;;;;1.33;1.23;;;;;;;-16.14;66.10;98290.72;4957172;29;20047;-87
2021/12/21 09:23:11;;;;;;;1.42;1.33;;;;;;;-16.19;65.78;98294.41;4910498;29;20047;-86
2021/12/21 09:25:56;;;;;;;1.75;1.65;;;;;;;-16.11;65.89;98301.69;4953118;29;20082;-86
2021/12/21 09:28:23;;;;;;;1.45;1.35;;;;;;;-16.20;66.00;98312.59;4937242;29;20051;-87
2021/12/21 09:30:53;;;;;;;1.50;1.40;;;;;;;-16.29;66.28;98295.91;4954757;28;20055;-87
2021/12/21 09:33:20;;;;;;;1.83;1.73;;;;;;;-16.26;65.84;98300.06;4954739;28;20094;-87
2021/12/21 09:35:49;;;;;;;1.50;1.40;;;;;;;-16.34;65.96;98305.69;4953428;28;20094;-86
2021/12/21 09:38:16;;;;;;;1.60;1.50;;;;;;;-16.30;66.00;98304.59;4953486;29;20118;-85
2021/12/21 09:40:43;;;;;;;1.67;1.58;;;;;;;-16.14;66.02;98306.25;4953715;29;20180;-86
2021/12/21 09:43:11;;;;;;;1.60;1.50;;;;;;;-15.94;65.80;98308.41;4954128;29;20090;-87
2021/12/21 09:45:39;;;;;;;1.60;1.50;;;;;;;-15.88;65.72;98320.13;4957105;28;20047;-83
2021/12/21 09:48:07;;;;;;;1.50;1.40;;;;;;;-15.98;65.19;98317.28;4974357;28;20077;-83
2021/12/21 09:50:36;;;;;;;1.85;1.75;;;;;;;-16.10;64.75;98324.06;4969490;28;20090;-85
2021/12/21 09:53:04;;;;;;;1.48;1.38;;;;;;;-16.08;64.80;98308.44;4977522;28;20282;-86
2021/12/21 09:55:31;;;;;;;1.90;1.80;;;;;;;-16.15;64.73;98300.25;4966461;28;20043;-87
2021/12/21 09:57:59;;;;;;;1.52;1.42;;;;;;;-16.10;65.27;98302.53;4968161;28;20047;-84
2021/12/21 10:00:29;;;;;;;1.77;1.67;;;;;;;-16.07;64.71;98303.19;4959646;28;20062;-88
2021/12/21 10:03:04;;;;;;;1.50;1.40;;;;;;;-15.92;64.48;98308.31;4957315;28;20093;-84
2021/12/21 10:05:36;;;;;;;1.60;1.50;;;;;;;-15.84;63.95;98299.16;4959003;28;20223;-84
2021/12/21 10:08:15;;;;;;;;;;;;;;;-15.82;63.57;98318.00;4952864;28;20059;-89
2021/12/21 10:10:49;;;;;;;1.80;1.70;;;;;;;-15.99;63.14;98318.22;4956485;28;20015;-85
2021/12/21 10:13:19;;;;;;;1.70;1.60;;;;;;;-16.04;63.03;98313.31;4959638;28;20082;-89
2021/12/21 10:16:01;;;;;;;1.70;1.60;;;;;;;-15.83;62.61;98329.25;4959871;28;20055;-86
2021/12/21 10:18:34;;;;;;;1.80;1.70;;;;;;;-15.87;62.54;98312.28;4964604;28;20055;-85
2021/12/21 10:21:04;;;;;;;1.52;1.42;;;;;;;-15.95;62.62;98317.06;4966803;28;20122;-86
2021/12/21 10:23:39;;;;;;;1.67;1.58;;;;;;;-15.84;62.78;98319.03;4942956;28;20504;-87
2021/12/21 10:26:21;;;;;;;1.80;1.70;;;;;;;-15.77;62.01;98315.94;4964210;28;20061;-84
2021/12/21 10:29:10;;;;;;;1.65;1.55;;;;;;;-15.99;61.72;98316.44;4951818;28;20064;-86
2021/12/21 10:31:40;;;;;;;1.42;1.33;;;;;;;-16.06;61.79;98315.16;4968455;28;20051;-88
2021/12/21 10:34:43;;;;;;;1.60;1.50;;;;;;;-15.87;61.64;98330.38;4969940;28;20566;-88
2021/12/21 10:37:56;;;;;;;1.50;1.40;;;;;;;-15.67;61.79;98330.84;4936834;28;20055;-87
2021/12/21 10:40:50;;;;;;;;;;;;;;;;;;;;;
2021/12/21 10:44:03;;;;;;;1.55;1.45;;;;;;;-15.48;61.53;98333.94;4848972;29;20061;-88
2021/12/21 10:46:56;;;;;;;1.60;1.50;;;;;;;-15.66;61.30;98335.09;4850915;29;20049;-89
2021/12/21 10:49:32;;;;;;;1.40;1.30;;;;;;;-15.75;61.45;98339.94;4834288;29;20076;-88
2021/12/21 10:52:29;;;;;;;1.60;1.50;;;;;;;-16.05;61.74;98313.41;4828716;29;20046;-87
2021/12/21 10:55:04;;;;;;;1.63;1.52;;;;;;;-16.25;61.82;98307.72;4835153;29;20051;-88
2021/12/21 10:57:33;;;;;;;1.50;1.40;;;;;;;-16.19;62.37;98320.25;4868631;29;20052;-86
2021/12/21 11:00:06;;;;;;;1.60;1.50;;;;;;;-16.13;62.60;98318.22;4873891;29;20068;-87
2021/12/21 11:02:35;;;;;;;1.63;1.52;;;;;;;-16.04;62.49;98338.34;4880293;29;20155;-86
2021/12/21 11:05:16;;;;;;;1.70;1.60;;;;;;;-16.23;62.08;98330.88;4863223;29;20716;-88
2021/12/21 11:07:48;;;;;;;1.60;1.50;;;;;;;-16.34;62.62;98336.69;4847675;29;20195;-88
2021/12/21 11:10:30;;;;;;;1.50;1.40;;;;;;;-16.42;63.14;98332.00;4851451;29;20068;-88
2021/12/21 11:13:10;;;;;;;;;;;;;;;-16.37;63.57;98339.47;4880882;29;20072;-88
2021/12/21 11:15:40;;;;;;;1.45;1.35;;;;;;;-16.21;63.40;98347.94;4879613;29;19927;-87
2021/12/21 11:18:12;;;;;;;1.33;1.23;;;;;;;-16.25;63.18;98340.47;4940629;28;20066;-87
2021/12/21 11:20:42;;;;;;;1.40;1.30;;;;;;;-16.43;63.30;98337.25;4977036;28;20059;-88
2021/12/21 11:23:15;;;;;;;1.38;1.27;;;;;;;-16.64;63.72;98337.59;4959981;28;20169;-87
2021/12/21 11:25:46;;;;;;;1.33;1.23;;;;;;;-16.76;63.82;98340.91;4925013;28;20090;-90
2021/12/21 11:28:21;;;;;;;1.45;1.35;;;;;;;-16.75;64.12;98340.00;4966016;28;20081;-86
2021/12/21 11:31:01;;;;;;;1.10;1.10;;;;;;;-16.77;64.09;98347.00;4982718;28;20054;-89
2021/12/21 11:33:44;;;;;;;1.50;1.40;;;;;;;-16.88;64.31;98350.25;4978774;28;20082;-87
2021/12/21 11:39:03;;;;;;;1.23;1.17;;;;;;;-16.83;64.49;98361.13;4970453;28;20063;-87
2021/12/21 11:41:33;;;;;;;1.70;1.60;;;;;;;-17.00;64.78;98355.28;4973986;28;20137;-86
2021/12/21 11:44:06;;;;;;;1.48;1.38;;;;;;;-16.99;64.66;98360.34;4973989;28;20452;-86
2021/12/21 11:46:58;;;;;;;1.38;1.27;;;;;;;-17.16;64.99;98342.41;4914651;28;20061;-87
2021/12/21 11:49:40;;;;;;;1.65;1.55;;;;;;;-17.27;65.56;98345.59;4931563;28;20507;-84
2021/12/21 11:52:12;;;;;;;1.52;1.42;;;;;;;-17.30;65.61;98361.25;4958381;28;20054;-87
2021/12/21 11:54:51;;;;;;;1.10;1.10;;;;;;;-17.34;65.62;98377.81;4941777;28;20138;-86
2021/12/21 11:57:21;;;;;;;1.52;1.42;;;;;;;-17.40;65.87;98376.41;4951373;28;20138;-86
2021/12/21 11:59:49;;;;;;;1.40;1.30;;;;;;;-17.40;66.35;98375.59;4939042;28;20053;-85
2021/12/21 12:02:38;;;;;;;1.80;1.70;;;;;;;-17.51;66.30;98369.28;4964286;28;20046;-84
2021/12/21 12:05:31;;;;;;;1.35;1.25;;;;;;;-17.55;66.29;98383.25;4955460;28;20043;-83
2021/12/21 12:08:02;;;;;;;1.50;1.40;;;;;;;-17.55;66.57;98378.09;4965068;28;20058;-85
2021/12/21 12:10:31;;;;;;;1.17;1.17;;;;;;;-17.53;66.85;98389.16;4961440;28;20427;-85
2021/12/21 12:13:12;;;;;;;1.10;1.10;;;;;;;-17.52;66.90;98392.56;4966636;28;20255;-86
2021/12/21 12:15:47;;;;;;;1.52;1.42;;;;;;;-17.59;67.10;98392.09;4956175;29;20106;-86
2021/12/21 12:18:24;;;;;;;1.38;1.27;;;;;;;-17.56;67.14;98406.56;4957147;29;20391;-86
2021/12/21 12:20:51;;;;;;;1.60;1.50;;;;;;;-17.50;67.02;98401.88;4953974;28;20145;-87
2021/12/21 12:23:19;;;;;;;1.55;1.45;;;;;;;-17.52;67.07;98408.91;4962562;28;20061;-86
2021/12/21 12:25:56;;;;;;;1.55;1.45;;;;;;;-17.60;67.25;98405.88;4958288;29;20078;-86
2021/12/21 12:28:32;;;;;;;1.38;1.27;;;;;;;-17.71;67.48;98413.38;4985994;28;20053;-85
2021/12/21 12:31:05;;;;;;;1.40;1.30;;;;;;;-17.81;67.46;98417.38;4962706;28;20509;-86
2021/12/21 12:33:39;;;;;;;1.30;1.20;;;;;;;-17.84;67.58;98420.13;4994841;28;20069;-87
2021/12/21 12:36:06;;;;;;;1.40;1.30;;;;;;;-17.85;67.65;98423.59;4971974;28;20050;-87
2021/12/21 12:38:43;;;;;;;1.50;1.40;;;;;;;-17.86;67.73;98422.78;4954979;28;20098;-87
2021/12/21 12:41:13;;;;;;;1.40;1.30;;;;;;;-17.81;68.05;98431.09;4956557;29;20453;-83
2021/12/21 12:43:41;;;;;;;1.15;1.15;;;;;;;-17.86;68.00;98437.41;4963607;28;20059;-85
2021/12/21 12:46:10;;;;;;;1.52;1.42;;;;;;;-17.92;68.09;98433.44;4976168;28;20047;-87
2021/12/21 12:48:47;;;;;;;1.40;1.30;;;;;;;-17.89;68.32;98438.41;4977145;28;20058;-86